createdAt,value
2023-03-29T00:01:00.146Z,97630.31
2023-03-29T00:03:47.478Z,97634.75
2023-03-29T00:06:34.389Z,97632.13
2023-03-29T00:09:23.606Z,97639.22
2023-03-29T00:12:11.652Z,97636.72
2023-03-29T00:14:58.571Z,97628.13
2023-03-29T00:17:45.528Z,97622.97
2023-03-29T00:20:32.414Z,97621.47
2023-03-29T00:23:19.234Z,97617.47
2023-03-29T00:26:08.129Z,97618.44
2023-03-29T00:28:55.407Z,97604.56
2023-03-29T00:31:44.449Z,97611.66
2023-03-29T00:34:31.333Z,97607.50
2023-03-29T00:37:18.937Z,97608.50
2023-03-29T00:40:11.057Z,97606.81
2023-03-29T00:42:58.167Z,97612.25
2023-03-29T00:45:45.041Z,97613.25
2023-03-29T00:48:32.855Z,97621.31
2023-03-29T00:51:21.661Z,97616.19
2023-03-29T00:54:10.805Z,97614.38
2023-03-29T00:56:58.213Z,97614.38
2023-03-29T00:59:45.230Z,97625.25
2023-03-29T01:02:34.721Z,97623.59
2023-03-29T01:05:34.716Z,97614.13
2023-03-29T01:08:27.572Z,97620.41
2023-03-29T01:11:17.062Z,97617.91
2023-03-29T01:14:12.835Z,97636.28
2023-03-29T01:16:59.671Z,97617.91
2023-03-29T01:19:50.284Z,97622.38
2023-03-29T01:22:43.928Z,97615.44
2023-03-29T01:25:49.287Z,97606.66
2023-03-29T01:29:07.526Z,97595.25
2023-03-29T01:32:17.219Z,97583.34
2023-03-29T01:35:10.339Z,97575.53
2023-03-29T01:38:07.349Z,97559.16
2023-03-29T01:40:54.302Z,97550.69
2023-03-29T01:43:46.861Z,97549.34
2023-03-29T01:46:48.651Z,97540.88
2023-03-29T01:49:45.540Z,97533.13
2023-03-29T01:52:36.857Z,97533.25
2023-03-29T01:55:35.425Z,97534.41
2023-03-29T01:58:24.447Z,97525.63
2023-03-29T02:01:13.995Z,97523.97
2023-03-29T02:04:04.311Z,97523.13
2023-03-29T02:06:54.268Z,97527.72
2023-03-29T02:09:42.028Z,97518.97
2023-03-29T02:12:29.001Z,97510.22
2023-03-29T02:15:18.995Z,97512.03
2023-03-29T02:18:06.700Z,97512.03
2023-03-29T02:20:55.919Z,97505.94
2023-03-29T02:23:46.645Z,97493.53
2023-03-29T02:26:33.689Z,97490.06
2023-03-29T02:29:20.660Z,97489.25
2023-03-29T02:32:16.743Z,97492.72
2023-03-29T02:35:37.021Z,97492.84
2023-03-29T02:38:25.581Z,97491.19
2023-03-29T02:41:13.077Z,97488.72
2023-03-29T02:44:00.570Z,97483.44
2023-03-29T02:46:50.031Z,97475.63
2023-03-29T02:49:36.958Z,97474.81
2023-03-29T02:52:33.537Z,97481.09
2023-03-29T02:55:23.178Z,97476.81
2023-03-29T02:58:10.476Z,97474.28
2023-03-29T03:00:59.055Z,97467.34
2023-03-29T03:03:47.915Z,97462.06
2023-03-29T03:06:36.693Z,97463.19
2023-03-29T03:09:24.141Z,97466.81
2023-03-29T03:12:11.483Z,97471.28
2023-03-29T03:14:58.442Z,97469.63
2023-03-29T03:17:46.530Z,97476.03
2023-03-29T03:20:33.510Z,97472.69
2023-03-29T03:23:20.453Z,97477.97
2023-03-29T03:26:08.693Z,97480.91
2023-03-29T03:28:56.522Z,97473.97
2023-03-29T03:31:44.644Z,97469.00
2023-03-29T03:34:31.600Z,97468.34
2023-03-29T03:37:19.489Z,97468.47
2023-03-29T03:40:12.083Z,97465.16
2023-03-29T03:42:58.972Z,97451.25
2023-03-29T03:45:45.902Z,97447.97
2023-03-29T03:48:33.349Z,97453.38
2023-03-29T03:51:20.274Z,97451.72
2023-03-29T03:54:07.094Z,97458.13
2023-03-29T03:56:54.212Z,97454.81
2023-03-29T03:59:41.124Z,97448.81
2023-03-29T04:02:28.536Z,97447.16
2023-03-29T04:05:16.381Z,97435.09
2023-03-29T04:08:03.330Z,97434.09
2023-03-29T04:10:54.646Z,97441.19
2023-03-29T04:13:41.583Z,97436.06
2023-03-29T04:16:28.736Z,97428.16
2023-03-29T04:19:16.132Z,97422.34
2023-03-29T04:22:03.000Z,97432.91
2023-03-29T04:24:49.878Z,97425.97
2023-03-29T04:27:36.983Z,97434.00
2023-03-29T04:30:23.965Z,97428.75
2023-03-29T04:33:11.280Z,97427.75
2023-03-29T04:35:58.329Z,97434.19
2023-03-29T04:38:47.811Z,97430.03
2023-03-29T04:41:35.227Z,97434.47
2023-03-29T04:44:22.134Z,97430.59
2023-03-29T04:47:11.887Z,97426.91
2023-03-29T04:49:58.706Z,97423.97
2023-03-29T04:52:46.071Z,97430.47
2023-03-29T04:55:33.056Z,97426.56
2023-03-29T04:58:22.180Z,97431.53
2023-03-29T05:01:10.782Z,97419.16
2023-03-29T05:03:57.714Z,97425.28
2023-03-29T05:06:44.598Z,97413.88
2023-03-29T05:09:33.109Z,97414.03
2023-03-29T05:12:22.314Z,97413.34
2023-03-29T05:15:09.732Z,97402.09
2023-03-29T05:17:56.841Z,97400.44
2023-03-29T05:20:43.706Z,97404.09
2023-03-29T05:23:30.812Z,97406.03
2023-03-29T05:26:17.749Z,97407.13
2023-03-29T05:29:04.637Z,97400.38
2023-03-29T05:31:52.508Z,97404.81
2023-03-29T05:34:39.655Z,97405.78
2023-03-29T05:37:26.634Z,97401.66
2023-03-29T05:40:13.543Z,97392.75
2023-03-29T05:43:02.480Z,97385.81
2023-03-29T05:45:49.347Z,97379.03
2023-03-29T05:48:36.467Z,97389.75
2023-03-29T05:51:24.490Z,97383.59
2023-03-29T05:54:12.017Z,97386.41
2023-03-29T05:56:58.852Z,97384.75
2023-03-29T05:59:45.685Z,97386.56
2023-03-29T06:02:33.563Z,97383.94
2023-03-29T06:05:20.578Z,97383.06
2023-03-29T06:08:07.462Z,97384.75
2023-03-29T06:11:04.592Z,97377.97
2023-03-29T06:13:52.842Z,97380.59
2023-03-29T06:16:42.615Z,97377.13
2023-03-29T06:19:29.738Z,97371.03
2023-03-29T06:22:17.123Z,97381.72
2023-03-29T06:25:05.291Z,97376.44
2023-03-29T06:27:52.202Z,97369.50
2023-03-29T06:30:39.326Z,97365.06
2023-03-29T06:33:26.519Z,97368.69
2023-03-29T06:36:16.222Z,97368.69
2023-03-29T06:39:03.994Z,97374.78
2023-03-29T06:41:51.314Z,97373.13
2023-03-29T06:44:38.183Z,97387.97
2023-03-29T06:47:30.822Z,97390.63
2023-03-29T06:50:18.191Z,97391.44
2023-03-29T06:53:06.779Z,97393.09
2023-03-29T06:55:53.862Z,97393.94
2023-03-29T06:58:41.153Z,97386.88
2023-03-29T07:01:28.663Z,97386.88
2023-03-29T07:04:16.460Z,97387.81
2023-03-29T07:07:04.184Z,97387.00
2023-03-29T07:09:54.597Z,97383.41
2023-03-29T07:12:42.279Z,97387.81
2023-03-29T07:15:30.038Z,97392.28
2023-03-29T07:18:18.473Z,97399.22
2023-03-29T07:21:06.101Z,97397.53
2023-03-29T07:23:52.972Z,97402.81
2023-03-29T07:26:46.319Z,97399.22
2023-03-29T07:29:39.589Z,97399.22
2023-03-29T07:32:26.809Z,97401.00
2023-03-29T07:35:15.144Z,97408.78
2023-03-29T07:38:02.249Z,97406.16
2023-03-29T07:40:49.253Z,97414.91
2023-03-29T07:43:36.111Z,97406.16
2023-03-29T07:46:23.264Z,97408.78
2023-03-29T07:49:10.397Z,97407.81
2023-03-29T07:51:57.290Z,97407.81
2023-03-29T07:54:44.251Z,97395.44
2023-03-29T07:57:31.215Z,97405.88
2023-03-29T08:00:19.980Z,97409.47
2023-03-29T08:03:07.389Z,97404.19
2023-03-29T08:05:54.453Z,97403.34
2023-03-29T08:08:41.478Z,97404.34
2023-03-29T08:11:28.391Z,97398.25
2023-03-29T08:14:15.374Z,97402.53
2023-03-29T08:17:02.715Z,97398.91
2023-03-29T08:19:51.309Z,97391.00
2023-03-29T08:22:39.765Z,97394.31
2023-03-29T08:25:27.024Z,97404.72
2023-03-29T08:28:13.933Z,97406.41
2023-03-29T08:31:01.303Z,97405.25
2023-03-29T08:33:48.788Z,97403.44
2023-03-29T08:36:35.669Z,97405.13
2023-03-29T08:39:22.624Z,97404.13
2023-03-29T08:42:19.866Z,97398.84
2023-03-29T08:45:35.413Z,97390.78
2023-03-29T08:48:26.861Z,97396.91
2023-03-29T08:51:22.960Z,97391.63
2023-03-29T08:54:17.085Z,97391.63
2023-03-29T08:57:10.566Z,97395.75
2023-03-29T09:00:00.334Z,97386.03
2023-03-29T09:02:48.485Z,97388.53
2023-03-29T09:05:40.665Z,97391.84
2023-03-29T09:08:27.741Z,97390.06
2023-03-29T09:11:23.606Z,97395.88
2023-03-29T09:14:41.765Z,97400.97
2023-03-29T09:17:39.392Z,97405.28
2023-03-29T09:20:36.695Z,97406.97
2023-03-29T09:23:38.802Z,97396.25
2023-03-29T09:26:42.009Z,97390.66
2023-03-29T09:30:10.891Z,97385.38
2023-03-29T09:33:05.288Z,97385.91
2023-03-29T09:36:01.358Z,97371.72
2023-03-29T09:38:50.969Z,97381.00
2023-03-29T09:42:01.013Z,97373.91
2023-03-29T09:44:54.550Z,97374.47
2023-03-29T09:47:58.206Z,97379.31
2023-03-29T09:50:47.369Z,97372.22
2023-03-29T09:53:34.404Z,97360.19
2023-03-29T09:56:21.539Z,97358.09
2023-03-29T09:59:11.819Z,97356.66
2023-03-29T10:02:10.233Z,97354.22
2023-03-29T10:05:00.877Z,97348.47
2023-03-29T10:07:52.286Z,97346.88
2023-03-29T10:10:39.452Z,97342.13
2023-03-29T10:13:29.490Z,97341.34
2023-03-29T10:16:39.313Z,97350.13
2023-03-29T10:19:30.935Z,97346.88
2023-03-29T10:22:22.873Z,97344.59
2023-03-29T10:25:13.737Z,97341.19
2023-03-29T10:28:06.047Z,97325.50
2023-03-29T10:30:55.710Z,97339.09
2023-03-29T10:33:42.903Z,97331.34
2023-03-29T10:36:29.859Z,97338.63
2023-03-29T10:39:17.039Z,97338.00
2023-03-29T10:42:04.489Z,97333.75
2023-03-29T10:44:59.474Z,97328.66
2023-03-29T10:47:48.370Z,97334.44
2023-03-29T10:50:40.192Z,97329.66
2023-03-29T10:53:32.829Z,97324.69
2023-03-29T10:56:23.403Z,97328.69
2023-03-29T10:59:29.044Z,97329.38
2023-03-29T11:02:15.907Z,97326.41
2023-03-29T11:05:13.474Z,97323.56
2023-03-29T11:08:33.303Z,97317.78
2023-03-29T11:11:26.358Z,97303.28
2023-03-29T11:14:35.033Z,97308.06
2023-03-29T11:17:51.051Z,97306.56
2023-03-29T11:20:55.142Z,97293.00
2023-03-29T11:23:53.862Z,97296.84
2023-03-29T11:27:03.093Z,97301.81
2023-03-29T11:29:54.475Z,97299.97
2023-03-29T11:32:47.349Z,97298.81
2023-03-29T11:35:46.492Z,97293.38
2023-03-29T11:38:36.325Z,97295.84
2023-03-29T11:41:27.427Z,97297.34
2023-03-29T11:44:20.866Z,97305.78
2023-03-29T11:47:15.134Z,97304.63
2023-03-29T11:50:14.595Z,97300.81
2023-03-29T11:53:08.534Z,97308.41
2023-03-29T11:55:57.150Z,97297.50
2023-03-29T11:58:48.882Z,97301.66
2023-03-29T12:01:40.023Z,97291.56
2023-03-29T12:04:31.408Z,97288.72
2023-03-29T12:07:20.318Z,97291.03
2023-03-29T12:10:16.062Z,97289.72
2023-03-29T12:13:15.031Z,97285.91
2023-03-29T12:16:40.346Z,97280.28
2023-03-29T12:19:32.125Z,97271.81
2023-03-29T12:22:19.046Z,97277.75
2023-03-29T12:25:09.157Z,97270.47
2023-03-29T12:28:16.304Z,97259.56
2023-03-29T12:31:28.972Z,97270.47
2023-03-29T12:34:35.366Z,97277.25
2023-03-29T12:38:03.898Z,97276.94
2023-03-29T12:40:56.822Z,97274.78
2023-03-29T12:43:43.805Z,97271.97
2023-03-29T12:46:34.596Z,97284.88
2023-03-29T12:49:28.352Z,97274.13
2023-03-29T12:52:33.590Z,97269.31
2023-03-29T12:55:32.314Z,97269.13
2023-03-29T12:58:27.361Z,97267.31
2023-03-29T13:01:27.835Z,97269.28
2023-03-29T13:04:18.939Z,97276.91
2023-03-29T13:07:07.087Z,97275.91
2023-03-29T13:09:56.192Z,97270.25
2023-03-29T13:12:46.034Z,97262.78
2023-03-29T13:15:36.899Z,97252.66
2023-03-29T13:19:01.417Z,97251.47
2023-03-29T13:22:04.737Z,97256.44
2023-03-29T13:25:14.572Z,97249.78
2023-03-29T13:28:27.518Z,97243.13
2023-03-29T13:31:17.477Z,97247.13
2023-03-29T13:34:13.604Z,97245.94
2023-03-29T13:37:03.931Z,97237.47
2023-03-29T13:39:53.380Z,97220.34
2023-03-29T13:42:45.482Z,97224.50
2023-03-29T13:45:33.697Z,97223.34
2023-03-29T13:48:46.934Z,97228.28
2023-03-29T13:51:38.730Z,97224.28
2023-03-29T13:54:32.717Z,97222.25
2023-03-29T13:57:22.103Z,97224.56
2023-03-29T14:00:18.321Z,97221.56
2023-03-29T14:03:13.232Z,97214.91
2023-03-29T14:06:01.634Z,97211.09
2023-03-29T14:08:49.821Z,97207.41
2023-03-29T14:11:36.991Z,97189.31
2023-03-29T14:14:25.599Z,97199.59
2023-03-29T14:17:22.028Z,97200.06
2023-03-29T14:20:09.675Z,97190.91
2023-03-29T14:22:56.598Z,97194.88
2023-03-29T14:25:43.446Z,97198.00
2023-03-29T14:28:30.714Z,97195.81
2023-03-29T14:31:22.311Z,97197.09
2023-03-29T14:34:19.213Z,97195.72
2023-03-29T14:37:07.279Z,97198.19
2023-03-29T14:39:54.894Z,97205.81
2023-03-29T14:42:41.773Z,97202.81
2023-03-29T14:45:29.184Z,97200.81
2023-03-29T14:48:16.383Z,97197.75
2023-03-29T14:51:04.173Z,97196.78
2023-03-29T14:53:51.244Z,97195.56
2023-03-29T14:56:38.339Z,97197.25
2023-03-29T14:59:32.604Z,97197.16
2023-03-29T15:02:29.426Z,97201.22
2023-03-29T15:05:38.851Z,97193.47
2023-03-29T15:08:34.189Z,97193.81
2023-03-29T15:11:23.264Z,97182.13
2023-03-29T15:14:15.937Z,97187.16
2023-03-29T15:17:07.085Z,97186.91
2023-03-29T15:19:58.621Z,97186.94
2023-03-29T15:23:02.128Z,97185.03
2023-03-29T15:25:58.481Z,97172.81
2023-03-29T15:28:54.978Z,97179.59
2023-03-29T15:31:42.246Z,97163.72
2023-03-29T15:34:30.914Z,97158.03
2023-03-29T15:37:17.767Z,97156.66
2023-03-29T15:40:09.692Z,97161.59
2023-03-29T15:42:56.677Z,97152.59
2023-03-29T15:45:44.112Z,97141.75
2023-03-29T15:48:33.802Z,97148.38
2023-03-29T15:51:21.346Z,97146.53
2023-03-29T15:54:09.412Z,97147.97
2023-03-29T15:57:03.515Z,97149.44
2023-03-29T15:59:50.838Z,97133.47
2023-03-29T16:02:38.192Z,97143.94
2023-03-29T16:05:25.845Z,97127.78
2023-03-29T16:08:13.410Z,97137.41
2023-03-29T16:11:00.324Z,97138.88
2023-03-29T16:13:47.186Z,97135.19
2023-03-29T16:16:34.851Z,97127.19
2023-03-29T16:19:22.435Z,97132.34
2023-03-29T16:22:09.838Z,97123.53
2023-03-29T16:24:56.748Z,97125.19
2023-03-29T16:27:44.360Z,97121.50
2023-03-29T16:30:31.906Z,97131.13
2023-03-29T16:33:19.010Z,97130.94
2023-03-29T16:36:06.673Z,97135.44
2023-03-29T16:38:54.461Z,97138.94
2023-03-29T16:41:42.134Z,97136.28
2023-03-29T16:44:29.108Z,97142.59
2023-03-29T16:47:16.423Z,97137.25
2023-03-29T16:50:03.632Z,97123.94
2023-03-29T16:52:52.484Z,97123.13
2023-03-29T16:55:40.356Z,97118.63
2023-03-29T16:58:27.223Z,97118.63
2023-03-29T17:01:16.066Z,97130.13
2023-03-29T17:04:03.382Z,97129.28
2023-03-29T17:06:50.348Z,97123.94
2023-03-29T17:09:37.431Z,97118.63
2023-03-29T17:12:24.305Z,97119.66
2023-03-29T17:15:11.323Z,97121.50
2023-03-29T17:17:58.201Z,97124.97
2023-03-29T17:20:45.325Z,97118.84
2023-03-29T17:23:32.156Z,97122.53
2023-03-29T17:26:19.006Z,97119.84
2023-03-29T17:29:06.209Z,97124.34
2023-03-29T17:31:53.176Z,97119.03
2023-03-29T17:34:40.869Z,97122.69
2023-03-29T17:37:27.836Z,97122.69
2023-03-29T17:40:14.752Z,97115.72
2023-03-29T17:43:01.671Z,97124.72
2023-03-29T17:45:54.818Z,97121.06
2023-03-29T17:48:41.750Z,97124.91
2023-03-29T17:51:28.652Z,97126.75
2023-03-29T17:54:16.351Z,97127.78
2023-03-29T17:57:03.291Z,97120.81
2023-03-29T17:59:50.178Z,97123.47
2023-03-29T18:02:37.163Z,97127.13
2023-03-29T18:05:24.224Z,97130.81
2023-03-29T18:08:12.905Z,97126.31
2023-03-29T18:11:11.740Z,97136.94
2023-03-29T18:14:00.280Z,97137.78
2023-03-29T18:16:47.235Z,97140.63
2023-03-29T18:19:34.225Z,97133.66
2023-03-29T18:22:21.628Z,97130.19
2023-03-29T18:25:09.581Z,97128.50
2023-03-29T18:27:56.538Z,97135.69
2023-03-29T18:30:43.408Z,97140.19
2023-03-29T18:33:35.080Z,97132.19
2023-03-29T18:36:25.171Z,97139.38
2023-03-29T18:39:13.609Z,97135.06
2023-03-29T18:42:01.645Z,97138.53
2023-03-29T18:44:48.889Z,97138.53
2023-03-29T18:47:35.792Z,97137.72
2023-03-29T18:50:23.270Z,97145.72
2023-03-29T18:53:10.169Z,97143.88
2023-03-29T18:55:57.697Z,97136.72
2023-03-29T18:58:44.541Z,97135.69
2023-03-29T19:01:31.868Z,97141.22
2023-03-29T19:04:20.023Z,97140.38
2023-03-29T19:07:08.842Z,97142.84
2023-03-29T19:09:55.745Z,97134.88
2023-03-29T19:12:42.586Z,97142.84
2023-03-29T19:15:29.585Z,97132.41
2023-03-29T19:18:16.459Z,97135.06
2023-03-29T19:21:03.594Z,97138.53
2023-03-29T19:23:52.866Z,97140.38
2023-03-29T19:26:40.461Z,97142.03
2023-03-29T19:29:27.470Z,97135.06
2023-03-29T19:32:14.352Z,97155.34
2023-03-29T19:35:01.380Z,97142.84
2023-03-29T19:37:48.214Z,97145.72
2023-03-29T19:40:35.202Z,97132.56
2023-03-29T19:43:22.110Z,97139.09
2023-03-29T19:46:10.877Z,97127.00
2023-03-29T19:48:59.636Z,97122.69
2023-03-29T19:51:47.879Z,97110.38
2023-03-29T19:54:34.738Z,97112.22
2023-03-29T19:57:21.621Z,97111.41
2023-03-29T20:00:10.829Z,97092.13
2023-03-29T20:02:57.736Z,97084.34
2023-03-29T20:05:44.621Z,97080.06
2023-03-29T20:08:31.508Z,97085.38
2023-03-29T20:11:23.654Z,97074.28
2023-03-29T20:14:13.995Z,97067.13
2023-03-29T20:17:00.806Z,97064.47
2023-03-29T20:19:47.603Z,97069.78
2023-03-29T20:22:34.462Z,97077.94
2023-03-29T20:25:21.805Z,97076.13
2023-03-29T20:28:08.751Z,97066.69
2023-03-29T20:30:55.854Z,97061.38
2023-03-29T20:33:44.403Z,97064.03
2023-03-29T20:36:31.978Z,97075.47
2023-03-29T20:39:19.040Z,97059.91
2023-03-29T20:42:06.376Z,97057.22
2023-03-29T20:44:53.903Z,97066.84
2023-03-29T20:47:42.570Z,97069.72
2023-03-29T20:50:29.809Z,97075.03
2023-03-29T20:53:18.200Z,97072.38
2023-03-29T20:56:06.930Z,97067.06
2023-03-29T20:58:55.668Z,97071.34
2023-03-29T21:01:42.650Z,97071.56
2023-03-29T21:04:29.697Z,97071.56
2023-03-29T21:07:17.202Z,97072.56
2023-03-29T21:10:04.647Z,97062.94
2023-03-29T21:12:52.326Z,97067.44
2023-03-29T21:15:40.624Z,97073.56
2023-03-29T21:18:27.504Z,97072.13
2023-03-29T21:21:14.663Z,97067.81
2023-03-29T21:24:01.938Z,97059.19
2023-03-29T21:26:49.085Z,97060.19
2023-03-29T21:29:36.448Z,97068.16
2023-03-29T21:32:23.344Z,97055.06
2023-03-29T21:35:10.590Z,97043.63
2023-03-29T21:37:57.453Z,97047.28
2023-03-29T21:40:44.381Z,97041.53
2023-03-29T21:43:31.273Z,97031.06
2023-03-29T21:46:18.141Z,97022.63
2023-03-29T21:49:05.092Z,97034.09
2023-03-29T21:51:52.405Z,97033.47
2023-03-29T21:54:39.242Z,97016.50
2023-03-29T21:57:26.156Z,97020.19
2023-03-29T22:00:15.462Z,97023.66
2023-03-29T22:03:02.408Z,97025.28
2023-03-29T22:05:56.882Z,97013.84
2023-03-29T22:08:46.592Z,97006.06
2023-03-29T22:11:34.665Z,97002.19
2023-03-29T22:14:21.966Z,97009.34
2023-03-29T22:17:09.523Z,97004.03
2023-03-29T22:19:57.146Z,97005.66
2023-03-29T22:22:52.549Z,97017.16
2023-03-29T22:25:39.397Z,97001.38
2023-03-29T22:28:26.426Z,97004.03
2023-03-29T22:31:15.558Z,96994.22
2023-03-29T22:34:02.811Z,96991.75
2023-03-29T22:36:49.652Z,96995.44
2023-03-29T22:39:36.866Z,96992.31
2023-03-29T22:42:23.855Z,96994.16
2023-03-29T22:45:11.027Z,96988.19
2023-03-29T22:47:57.896Z,96979.19
2023-03-29T22:50:47.883Z,96976.09
2023-03-29T22:53:34.839Z,96976.28
2023-03-29T22:56:22.070Z,96965.84
2023-03-29T22:59:09.040Z,96980.78
2023-03-29T23:01:55.975Z,96984.28
2023-03-29T23:04:42.986Z,96967.69
2023-03-29T23:07:29.973Z,96973.00
2023-03-29T23:10:17.026Z,96969.72
2023-03-29T23:13:09.639Z,96967.06
2023-03-29T23:15:58.955Z,96964.56
2023-03-29T23:18:46.545Z,96962.94
2023-03-29T23:21:33.447Z,96965.78
2023-03-29T23:24:20.274Z,96961.66
2023-03-29T23:27:07.723Z,96961.84
2023-03-29T23:29:56.256Z,96958.56
2023-03-29T23:32:43.161Z,96958.56
2023-03-29T23:35:30.085Z,96954.88
2023-03-29T23:38:16.949Z,96955.06
2023-03-29T23:41:05.689Z,96954.41
2023-03-29T23:43:53.610Z,96946.25
2023-03-29T23:46:41.872Z,96940.09
2023-03-29T23:49:28.766Z,96941.31
2023-03-29T23:52:15.725Z,96939.66
2023-03-29T23:55:04.472Z,96934.53
2023-03-29T23:57:51.393Z,96934.53
